Time;durP1;ratioP1;P1;durP2;ratioP2;P2;SDS_P1;SDS_P2;PMS_P1;PMS_P2;Temp;Humidity;BMP_temperature;BMP_pressure;BME280_temperature;BME280_humidity;BME280_pressure;Samples;Min_cycle;Max_cycle;Signal;HPM_P1;HPM_P2
2022/05/15 00:02:37;;;;;;;20.80;5.90;;;12.00;99.90;;;;;;5032632;28;20041;-71
2022/05/15 00:05:04;;;;;;;25.38;6.47;;;11.90;99.90;;;;;;5032430;28;20508;-71
2022/05/15 00:07:30;;;;;;;26.90;6.82;;;11.90;99.90;;;;;;5032361;28;20037;-71
2022/05/15 00:09:55;;;;;;;25.60;6.75;;;11.90;99.90;;;;;;5032281;28;20064;-71
2022/05/15 00:12:21;;;;;;;24.30;6.35;;;11.90;99.90;;;;;;5016069;28;20128;-71
2022/05/15 00:14:48;;;;;;;25.52;7.05;;;11.90;99.90;;;;;;5032129;28;20528;-71
2022/05/15 00:17:15;;;;;;;26.15;7.13;;;11.80;99.90;;;;;;5015712;28;20041;-71
2022/05/15 00:19:42;;;;;;;24.58;6.50;;;11.80;99.90;;;;;;5032395;28;20069;-71
2022/05/15 00:22:08;;;;;;;21.73;6.07;;;11.80;99.90;;;;;;5032382;28;20127;-71
2022/05/15 00:24:35;;;;;;;28.05;6.53;;;11.80;99.90;;;;;;5031950;28;20467;-71
2022/05/15 00:27:00;;;;;;;30.70;7.10;;;11.70;99.90;;;;;;5031943;28;20448;-71
2022/05/15 00:29:26;;;;;;;31.42;6.80;;;11.70;99.90;;;;;;5031965;28;20087;-71
2022/05/15 00:31:52;;;;;;;24.23;5.90;;;11.70;99.90;;;;;;5031956;28;20038;-71
2022/05/15 00:34:17;;;;;;;26.13;6.43;;;11.60;99.90;;;;;;5033216;28;20045;-71
2022/05/15 00:36:43;;;;;;;24.05;6.60;;;11.60;99.90;;;;;;5032154;28;20561;-71
2022/05/15 00:39:09;;;;;;;19.83;5.97;;;11.60;99.90;;;;;;5032175;28;20558;-71
2022/05/15 00:41:37;;;;;;;24.17;6.85;;;11.60;99.90;;;;;;5015731;28;20064;-71
2022/05/15 00:44:03;;;;;;;18.50;5.40;;;11.50;99.90;;;;;;5031775;28;20037;-71
2022/05/15 00:46:32;;;;;;;23.00;5.97;;;11.50;99.90;;;;;;5031718;28;20038;-71
2022/05/15 00:48:59;;;;;;;23.33;6.60;;;11.50;99.90;;;;;;5031816;28;20041;-71
2022/05/15 00:51:48;;;;;;;28.02;7.78;;;11.50;99.90;;;;;;5031786;28;20494;-71
2022/05/15 00:54:25;;;;;;;25.90;6.70;;;11.50;99.90;;;;;;5031787;28;20041;-71
2022/05/15 00:57:02;;;;;;;25.63;6.85;;;11.40;99.90;;;;;;5031668;28;20077;-71
2022/05/15 00:59:39;;;;;;;28.08;6.32;;;11.40;99.90;;;;;;5032006;28;20075;-71
2022/05/15 01:02:04;;;;;;;23.23;6.60;;;11.40;99.90;;;;;;5031711;28;20056;-71
2022/05/15 01:04:31;;;;;;;26.73;6.75;;;11.40;99.90;;;;;;5031593;28;20409;-71
2022/05/15 01:06:57;;;;;;;26.10;7.07;;;11.40;99.90;;;;;;5015035;28;20072;-71
2022/05/15 01:09:23;;;;;;;25.08;6.72;;;11.30;99.90;;;;;;5035552;28;20030;-71
2022/05/15 01:11:49;;;;;;;24.60;6.90;;;11.30;99.90;;;;;;5035811;28;20490;-71
2022/05/15 01:14:18;;;;;;;25.60;6.47;;;11.30;99.90;;;;;;5035547;28;20080;-71
2022/05/15 01:16:44;;;;;;;26.35;6.82;;;11.30;99.90;;;;;;5035410;28;20175;-71
2022/05/15 01:19:10;;;;;;;24.77;6.15;;;11.30;99.90;;;;;;5035434;28;20084;-71
2022/05/15 01:21:56;;;;;;;26.83;6.90;;;11.30;99.90;;;;;;5035611;28;20049;-71
2022/05/15 01:24:22;;;;;;;24.55;6.97;;;11.40;99.90;;;;;;5035383;28;20191;-71
2022/05/15 01:26:48;;;;;;;21.98;6.35;;;11.30;99.90;;;;;;5035244;28;20470;-71
2022/05/15 01:29:13;;;;;;;27.45;6.28;;;11.30;99.90;;;;;;5035216;28;20037;-71
2022/05/15 01:31:40;;;;;;;25.33;7.22;;;11.30;99.90;;;;;;5035424;28;20029;-71
2022/05/15 01:34:10;;;;;;;25.92;7.60;;;11.30;99.90;;;;;;5035431;28;20510;-71
2022/05/15 01:36:36;;;;;;;19.88;6.05;;;11.30;99.90;;;;;;5018597;28;20053;-71
2022/05/15 01:39:04;;;;;;;27.45;7.15;;;11.20;99.90;;;;;;5035023;28;20121;-71
2022/05/15 01:41:30;;;;;;;23.25;6.55;;;11.20;99.90;;;;;;5035257;28;20516;-71
2022/05/15 01:43:56;;;;;;;27.70;7.95;;;11.10;99.90;;;;;;5034889;28;20033;-71
2022/05/15 01:46:24;;;;;;;23.70;5.97;;;11.10;99.90;;;;;;5018651;28;20025;-71
2022/05/15 01:48:51;;;;;;;21.83;6.22;;;11.10;99.90;;;;;;5035128;28;20041;-71
2022/05/15 01:51:17;;;;;;;24.70;6.60;;;11.10;99.90;;;;;;5034990;28;20119;-71
2022/05/15 01:53:43;;;;;;;22.52;6.32;;;11.10;99.90;;;;;;5034837;28;20486;-71
2022/05/15 01:56:10;;;;;;;21.33;6.00;;;11.00;99.90;;;;;;5034950;28;20045;-71
2022/05/15 01:58:36;;;;;;;22.73;5.75;;;11.00;99.90;;;;;;5018545;28;20136;-71
2022/05/15 02:01:01;;;;;;;21.17;6.10;;;10.90;99.90;;;;;;5034702;28;20075;-71
2022/05/15 02:03:27;;;;;;;22.00;6.60;;;10.90;99.90;;;;;;5034778;28;20038;-71
2022/05/15 02:05:53;;;;;;;20.80;5.57;;;10.90;99.90;;;;;;5034674;28;20493;-71
2022/05/15 02:08:18;;;;;;;23.40;6.22;;;10.90;99.90;;;;;;5034513;28;20037;-71
2022/05/15 02:10:45;;;;;;;19.55;5.65;;;10.90;99.90;;;;;;5034523;28;20036;-71
2022/05/15 02:13:10;;;;;;;26.00;7.05;;;10.90;99.90;;;;;;5035293;28;20049;-71
2022/05/15 02:15:36;;;;;;;25.38;6.57;;;10.80;99.90;;;;;;5034369;28;20041;-71
2022/05/15 02:18:04;;;;;;;25.23;6.22;;;10.80;99.90;;;;;;5034453;28;20053;-71
2022/05/15 02:20:30;;;;;;;23.95;6.50;;;10.90;99.90;;;;;;5034450;28;20037;-71
2022/05/15 02:22:55;;;;;;;24.90;6.55;;;10.80;99.90;;;;;;5034439;28;20049;-71
2022/05/15 02:25:21;;;;;;;28.35;6.47;;;10.80;99.90;;;;;;5034189;28;20504;-71
2022/05/15 02:27:47;;;;;;;22.00;5.80;;;10.70;99.90;;;;;;5034192;28;20041;-71
2022/05/15 02:30:14;;;;;;;28.50;7.10;;;10.70;99.90;;;;;;5034425;28;20096;-71
2022/05/15 02:32:40;;;;;;;20.48;5.88;;;10.70;99.90;;;;;;5017579;28;20038;-71
2022/05/15 02:35:07;;;;;;;19.10;6.18;;;10.70;99.90;;;;;;5034507;28;20128;-71
2022/05/15 02:37:32;;;;;;;20.85;6.20;;;10.60;99.90;;;;;;5034205;28;20103;-71
2022/05/15 02:39:58;;;;;;;22.90;5.93;;;10.60;99.90;;;;;;5034211;28;20049;-71
2022/05/15 02:42:24;;;;;;;22.20;6.50;;;10.60;99.90;;;;;;5034180;28;20045;-71
2022/05/15 02:44:50;;;;;;;22.98;5.90;;;10.60;99.90;;;;;;5017279;28;20387;-71
2022/05/15 02:47:15;;;;;;;20.27;6.05;;;10.60;99.90;;;;;;5034096;28;20045;-71
2022/05/15 02:52:25;;;;;;;22.38;5.82;;;10.60;99.90;;;;;;5034062;28;20037;-71
2022/05/15 02:54:51;;;;;;;24.30;6.05;;;10.50;99.90;;;;;;5033602;28;20489;-71
2022/05/15 02:57:16;;;;;;;24.50;6.25;;;10.50;99.90;;;;;;5033639;28;20180;-71
2022/05/15 02:59:42;;;;;;;24.10;6.88;;;10.50;99.90;;;;;;5033835;28;20084;-71
2022/05/15 03:02:07;;;;;;;24.85;7.07;;;10.50;99.90;;;;;;5033767;28;20464;-71
2022/05/15 03:04:33;;;;;;;26.05;6.85;;;10.50;99.90;;;;;;5033362;28;20038;-71
2022/05/15 03:06:59;;;;;;;30.05;7.88;;;10.50;99.90;;;;;;5033249;28;20121;-71
2022/05/15 03:09:25;;;;;;;26.17;7.57;;;10.50;99.90;;;;;;5033651;28;20179;-71
2022/05/15 03:11:50;;;;;;;28.58;7.75;;;10.50;99.90;;;;;;5033336;28;20077;-72
2022/05/15 03:14:16;;;;;;;22.88;6.45;;;10.50;99.90;;;;;;5033291;28;20043;-71
2022/05/15 03:16:42;;;;;;;27.98;7.18;;;10.50;99.90;;;;;;5033204;28;20073;-71
2022/05/15 03:19:07;;;;;;;25.75;7.63;;;10.50;99.90;;;;;;5033170;28;20081;-71
2022/05/15 03:21:33;;;;;;;30.08;7.25;;;10.50;99.90;;;;;;5033429;28;20045;-71
2022/05/15 03:24:05;;;;;;;25.02;6.97;;;10.50;99.90;;;;;;5033016;28;20422;-71
2022/05/15 03:26:34;;;;;;;24.67;7.65;;;10.50;99.90;;;;;;5016562;28;20521;-71
2022/05/15 03:29:00;;;;;;;25.77;6.47;;;10.50;99.90;;;;;;5034140;28;20401;-71
2022/05/15 03:31:26;;;;;;;25.00;7.05;;;10.50;99.90;;;;;;5032257;28;20529;-71
2022/05/15 03:33:52;;;;;;;31.45;7.53;;;10.50;99.90;;;;;;5016428;28;20046;-71
2022/05/15 03:36:17;;;;;;;29.85;7.47;;;10.50;99.90;;;;;;5033070;28;20046;-71
2022/05/15 03:38:45;;;;;;;23.80;6.85;;;10.40;99.90;;;;;;5033105;28;20048;-71
2022/05/15 03:41:11;;;;;;;25.00;7.20;;;10.50;99.90;;;;;;5032768;28;20037;-71
2022/05/15 03:43:37;;;;;;;26.75;6.95;;;10.40;99.90;;;;;;5032854;28;20120;-71
2022/05/15 03:46:04;;;;;;;31.40;7.63;;;10.40;99.90;;;;;;5032571;28;20120;-71
2022/05/15 03:48:30;;;;;;;24.13;7.47;;;10.40;99.90;;;;;;5032618;28;20472;-71
2022/05/15 03:50:56;;;;;;;27.30;7.63;;;10.30;99.90;;;;;;5032904;28;20072;-71
2022/05/15 03:53:24;;;;;;;23.17;6.90;;;10.40;99.90;;;;;;5032525;28;20128;-71
2022/05/15 03:55:50;;;;;;;27.35;7.50;;;10.30;99.90;;;;;;5032464;28;20072;-71
2022/05/15 03:58:16;;;;;;;25.73;7.18;;;10.40;99.90;;;;;;5032718;28;20497;-71
2022/05/15 04:00:42;;;;;;;27.23;6.47;;;10.30;99.90;;;;;;5032488;28;20045;-71
2022/05/15 04:03:08;;;;;;;24.60;7.03;;;10.30;99.90;;;;;;5032351;28;20122;-71
2022/05/15 04:05:33;;;;;;;28.05;7.07;;;10.30;99.90;;;;;;5032402;28;20131;-71
2022/05/15 04:07:59;;;;;;;27.35;6.50;;;10.30;99.90;;;;;;5032352;28;20050;-71
2022/05/15 04:10:26;;;;;;;23.77;7.47;;;10.30;99.90;;;;;;5032558;28;20040;-72
2022/05/15 04:12:52;;;;;;;29.45;7.55;;;10.30;99.90;;;;;;5015797;28;20041;-71
2022/05/15 04:15:18;;;;;;;26.65;7.65;;;10.30;99.90;;;;;;5032154;28;20561;-71
2022/05/15 04:17:47;;;;;;;26.67;7.43;;;10.30;99.90;;;;;;5032185;28;20038;-71
2022/05/15 04:20:15;;;;;;;25.88;7.60;;;10.30;99.90;;;;;;5032168;28;20042;-71
2022/05/15 04:22:41;;;;;;;25.02;7.32;;;10.30;99.90;;;;;;5032378;28;20033;-71
2022/05/15 04:25:07;;;;;;;26.40;7.03;;;10.30;99.90;;;;;;5031938;28;20508;-71
2022/05/15 04:27:33;;;;;;;22.50;6.57;;;10.40;99.90;;;;;;5032275;28;20084;-72
2022/05/15 04:29:59;;;;;;;27.05;6.88;;;10.40;99.90;;;;;;5032261;28;20509;-71
2022/05/15 04:32:25;;;;;;;27.38;6.95;;;10.40;99.90;;;;;;5032725;28;20056;-71
2022/05/15 04:34:51;;;;;;;23.98;6.10;;;10.40;99.90;;;;;;5031888;28;20044;-71
2022/05/15 04:37:16;;;;;;;28.02;7.10;;;10.40;99.90;;;;;;5031923;28;20046;-71
2022/05/15 04:39:42;;;;;;;25.95;7.63;;;10.40;99.90;;;;;;5032160;28;20049;-71
2022/05/15 04:42:08;;;;;;;26.85;7.15;;;10.40;99.90;;;;;;5031793;28;20079;-71
2022/05/15 04:44:34;;;;;;;26.25;7.15;;;10.40;99.90;;;;;;5015260;28;20399;-71
2022/05/15 04:46:59;;;;;;;28.77;8.02;;;10.50;99.90;;;;;;5031742;28;20045;-71
2022/05/15 04:49:26;;;;;;;24.35;6.72;;;10.60;99.90;;;;;;5032191;28;20056;-72
2022/05/15 04:51:52;;;;;;;24.40;7.18;;;10.60;99.90;;;;;;5031804;28;20042;-71
2022/05/15 04:54:17;;;;;;;24.88;6.93;;;10.60;99.90;;;;;;5031744;28;20049;-71
2022/05/15 04:56:43;;;;;;;25.92;7.25;;;10.70;99.90;;;;;;5031700;28;20067;-71
2022/05/15 04:59:09;;;;;;;24.65;7.07;;;10.80;99.90;;;;;;5031676;28;20041;-71
2022/05/15 05:01:34;;;;;;;22.63;7.05;;;10.80;99.90;;;;;;5015524;28;20037;-71
2022/05/15 05:04:00;;;;;;;24.70;7.40;;;10.80;99.90;;;;;;5031743;28;20100;-71
2022/05/15 05:06:27;;;;;;;21.45;6.55;;;10.90;99.90;;;;;;5032140;28;20482;-71
2022/05/15 05:08:53;;;;;;;24.63;6.20;;;10.90;99.90;;;;;;5015145;28;20041;-71
2022/05/15 05:11:19;;;;;;;28.52;7.03;;;11.00;99.90;;;;;;5031833;28;20048;-71
2022/05/15 05:13:45;;;;;;;29.73;7.35;;;11.00;99.90;;;;;;5031858;28;20410;-71
2022/05/15 05:16:11;;;;;;;26.30;7.15;;;11.10;99.90;;;;;;5031506;28;20522;-71
2022/05/15 05:18:37;;;;;;;21.60;6.57;;;11.20;99.90;;;;;;5031511;28;20041;-71
2022/05/15 05:21:04;;;;;;;21.52;5.88;;;11.20;99.90;;;;;;5031549;28;20049;-71
2022/05/15 05:23:29;;;;;;;22.75;6.70;;;11.30;99.90;;;;;;5031427;28;20140;-72
2022/05/15 05:25:55;;;;;;;24.30;6.45;;;11.40;99.90;;;;;;5031421;28;20124;-71
2022/05/15 05:28:21;;;;;;;29.10;7.63;;;11.40;99.90;;;;;;5031688;28;20124;-71
2022/05/15 05:30:47;;;;;;;25.17;7.03;;;11.50;99.90;;;;;;5031721;28;20401;-71
2022/05/15 05:33:12;;;;;;;20.60;6.18;;;11.50;99.90;;;;;;5031673;28;20497;-72
2022/05/15 05:35:38;;;;;;;27.13;6.95;;;11.60;99.90;;;;;;5031319;28;20045;-72
2022/05/15 05:38:06;;;;;;;28.65;6.40;;;11.70;99.90;;;;;;5031376;28;20072;-72
2022/05/15 05:40:31;;;;;;;25.42;6.70;;;11.70;99.90;;;;;;5031370;28;20049;-72
2022/05/15 05:42:57;;;;;;;24.45;6.38;;;11.80;99.90;;;;;;5031298;28;20041;-72
2022/05/15 05:45:22;;;;;;;23.27;6.13;;;11.90;99.90;;;;;;5031262;28;20038;-71
2022/05/15 05:47:50;;;;;;;20.13;5.72;;;12.00;99.90;;;;;;5031300;28;20064;-71
2022/05/15 05:50:19;;;;;;;23.75;5.10;;;12.00;99.90;;;;;;5031291;28;20049;-71
2022/05/15 05:52:45;;;;;;;24.33;5.85;;;12.10;99.90;;;;;;5031518;28;20060;-71
2022/05/15 05:55:13;;;;;;;22.20;5.45;;;12.10;99.90;;;;;;5034136;28;20296;-71
2022/05/15 05:57:39;;;;;;;26.10;6.20;;;12.20;99.90;;;;;;5036222;28;20045;-71
2022/05/15 06:00:08;;;;;;;18.92;5.35;;;12.30;99.90;;;;;;5034726;28;20045;-71
2022/05/15 06:02:34;;;;;;;20.08;5.85;;;12.40;99.90;;;;;;5034877;28;20054;-71
2022/05/15 06:04:59;;;;;;;19.48;5.78;;;12.50;99.90;;;;;;5034370;28;20120;-71
2022/05/15 06:07:27;;;;;;;22.95;6.30;;;12.50;99.90;;;;;;5034649;28;20091;-71
2022/05/15 06:09:54;;;;;;;25.45;7.18;;;12.60;99.90;;;;;;5034313;28;20045;-71
2022/05/15 06:12:22;;;;;;;23.42;5.72;;;12.70;99.90;;;;;;5034741;28;20100;-71
2022/05/15 06:14:49;;;;;;;25.65;6.40;;;12.80;99.90;;;;;;5034340;28;20559;-71
2022/05/15 06:17:14;;;;;;;19.75;5.05;;;12.80;99.90;;;;;;5017896;28;20038;-71
2022/05/15 06:19:40;;;;;;;20.05;5.85;;;12.90;99.90;;;;;;5017945;28;20048;-71
2022/05/15 06:22:07;;;;;;;21.42;5.45;;;12.90;99.90;;;;;;5034306;28;20050;-71
2022/05/15 06:24:33;;;;;;;22.42;6.20;;;13.00;99.90;;;;;;5034350;28;20046;-71
2022/05/15 06:26:59;;;;;;;21.27;5.22;;;13.10;99.90;;;;;;5034428;28;20094;-71
2022/05/15 06:29:26;;;;;;;21.85;5.47;;;13.20;99.90;;;;;;5034443;28;20077;-71
2022/05/15 06:31:52;;;;;;;20.67;5.65;;;13.30;99.90;;;;;;5034365;28;20083;-71
2022/05/15 06:34:17;;;;;;;24.83;5.35;;;13.40;99.90;;;;;;5034316;28;20088;-71
2022/05/15 06:36:43;;;;;;;21.23;5.13;;;13.50;99.90;;;;;;5033961;28;20056;-71
2022/05/15 06:39:09;;;;;;;18.98;4.70;;;13.60;99.90;;;;;;5034005;28;20049;-71
2022/05/15 06:41:35;;;;;;;19.95;5.03;;;13.70;99.90;;;;;;5033962;28;20041;-71
2022/05/15 06:44:00;;;;;;;17.02;4.85;;;13.80;99.90;;;;;;5034277;28;20067;-71
2022/05/15 06:46:27;;;;;;;19.30;4.63;;;13.90;99.90;;;;;;5034234;28;20120;-71
2022/05/15 06:48:52;;;;;;;17.50;4.88;;;14.00;99.90;;;;;;5034074;28;20041;-71
2022/05/15 06:51:18;;;;;;;16.23;4.75;;;14.10;99.90;;;;;;5017521;28;20475;-71
2022/05/15 06:53:45;;;;;;;19.98;5.63;;;14.20;99.90;;;;;;5033802;28;20490;-71
2022/05/15 06:58:55;;;;;;;15.27;4.50;;;14.40;99.90;;;;;;5033669;28;20494;-71
2022/05/15 07:01:21;;;;;;;18.85;4.57;;;14.50;99.90;;;;;;5033585;28;20501;-71
2022/05/15 07:03:47;;;;;;;15.90;4.70;;;14.60;99.90;;;;;;5033456;28;20124;-71
2022/05/15 07:06:13;;;;;;;20.60;4.68;;;14.70;99.90;;;;;;5032121;28;20038;-71
2022/05/15 07:08:39;;;;;;;18.17;4.80;;;14.80;99.90;;;;;;5033701;28;20080;-71
2022/05/15 07:11:05;;;;;;;19.17;4.75;;;14.90;99.90;;;;;;5033642;28;20405;-70
2022/05/15 07:13:32;;;;;;;17.27;4.07;;;15.00;99.90;;;;;;5033593;28;20465;-71
2022/05/15 07:15:59;;;;;;;17.80;4.53;;;15.10;99.90;;;;;;5033748;28;20125;-70
2022/05/15 07:18:24;;;;;;;18.52;5.25;;;15.20;99.90;;;;;;5033377;28;20045;-70
2022/05/15 07:20:51;;;;;;;17.65;4.38;;;15.30;99.90;;;;;;5033524;28;20044;-71
2022/05/15 07:23:18;;;;;;;15.80;4.35;;;15.40;99.90;;;;;;5017013;28;20045;-71
2022/05/15 07:25:44;;;;;;;19.92;4.85;;;15.60;99.90;;;;;;5033207;28;20046;-71
2022/05/15 07:28:10;;;;;;;20.25;4.72;;;15.70;99.90;;;;;;5033054;28;20037;-71
2022/05/15 07:30:35;;;;;;;20.63;4.85;;;15.70;99.90;;;;;;5033291;28;20120;-71
2022/05/15 07:33:01;;;;;;;15.93;4.72;;;15.90;99.90;;;;;;5033182;28;20405;-71
2022/05/15 07:35:28;;;;;;;18.15;4.90;;;16.00;99.90;;;;;;5032853;28;20083;-71
2022/05/15 07:37:54;;;;;;;20.98;5.18;;;16.10;99.90;;;;;;5032929;28;20034;-71
2022/05/15 07:40:19;;;;;;;18.30;5.20;;;16.20;99.90;;;;;;5032825;28;20037;-71
2022/05/15 07:42:45;;;;;;;18.88;4.55;;;16.40;99.90;;;;;;5032777;28;20033;-71
2022/05/15 07:45:12;;;;;;;22.92;4.57;;;16.40;99.90;;;;;;5032641;28;20038;-70
2022/05/15 07:47:38;;;;;;;19.02;5.28;;;16.60;99.90;;;;;;5034207;28;20490;-70
2022/05/15 07:50:05;;;;;;;19.90;4.78;;;16.70;99.90;;;;;;5032648;28;20125;-70
2022/05/15 07:52:31;;;;;;;14.55;5.00;;;16.80;99.90;;;;;;5032855;28;20489;-70
2022/05/15 07:54:56;;;;;;;20.50;4.85;;;17.00;99.90;;;;;;5032494;28;20099;-71
2022/05/15 07:57:22;;;;;;;20.65;4.82;;;17.20;99.90;;;;;;5032784;28;20052;-71
2022/05/15 07:59:48;;;;;;;20.17;5.45;;;17.30;99.90;;;;;;5032754;28;20486;-71
2022/05/15 08:02:13;;;;;;;19.77;5.30;;;17.40;99.90;;;;;;5032736;28;20405;-71
2022/05/15 08:10:09;;;;;;;18.50;4.00;;;17.70;99.90;;;;;;5032492;28;20049;-71
2022/05/15 08:12:35;;;;;;;20.02;4.20;;;17.90;99.90;;;;;;5032301;28;20037;-71
2022/05/15 08:15:06;;;;;;;14.10;4.65;;;18.10;99.90;;;;;;5032184;28;20048;-71
2022/05/15 08:17:31;;;;;;;17.38;4.57;;;18.20;99.90;;;;;;5032928;28;20049;-71
2022/05/15 08:23:33;;;;;;;18.05;4.80;;;18.50;99.90;;;;;;5032735;28;20055;-70
2022/05/15 08:25:44;;;;;;;21.50;4.65;;;18.70;99.90;;;;;;5031855;28;20417;-69
2022/05/15 08:28:10;;;;;;;19.50;4.72;;;18.80;99.90;;;;;;5032325;28;20042;-70
2022/05/15 08:30:35;;;;;;;16.10;4.60;;;18.90;99.90;;;;;;5032049;28;20544;-70
2022/05/15 08:33:01;;;;;;;21.88;6.05;;;19.10;99.90;;;;;;5015558;28;20041;-70
2022/05/15 08:35:28;;;;;;;16.52;4.47;;;19.10;99.40;;;;;;5031910;28;20033;-70
2022/05/15 08:37:54;;;;;;;21.73;5.15;;;19.30;98.60;;;;;;5031962;28;20130;-70
2022/05/15 08:40:30;;;;;;;18.98;5.35;;;19.40;96.90;;;;;;5031939;28;20084;-70
2022/05/15 08:42:58;;;;;;;22.20;4.63;;;19.50;96.40;;;;;;5031923;28;20033;-70
2022/05/15 08:45:27;;;;;;;16.50;4.93;;;19.70;95.50;;;;;;5032130;28;20057;-70
2022/05/15 08:48:06;;;;;;;16.58;4.40;;;19.80;94.50;;;;;;5015354;28;20044;-70
2022/05/15 08:50:39;;;;;;;21.17;5.50;;;20.00;95.40;;;;;;5031961;28;20041;-70
2022/05/15 08:53:08;;;;;;;21.08;5.95;;;20.10;94.20;;;;;;5031802;28;20073;-70
2022/05/15 08:55:47;;;;;;;22.50;5.78;;;20.20;93.20;;;;;;5031693;28;20037;-70
2022/05/15 08:58:29;;;;;;;16.00;4.45;;;20.30;91.40;;;;;;5032295;28;20053;-70
2022/05/15 09:00:56;;;;;;;14.93;4.40;;;20.40;90.20;;;;;;5031725;28;20444;-70
2022/05/15 09:03:26;;;;;;;21.55;5.57;;;20.50;93.00;;;;;;5015176;28;20042;-71
2022/05/15 09:06:04;;;;;;;15.80;4.68;;;20.60;90.20;;;;;;5031468;28;20038;-70
2022/05/15 09:08:50;;;;;;;16.20;5.15;;;20.80;90.10;;;;;;5031637;28;20094;-70
2022/05/15 09:11:39;;;;;;;23.85;4.88;;;21.00;79.40;;;;;;5031668;28;20052;-70
2022/05/15 09:14:40;;;;;;;17.20;4.68;;;21.20;82.40;;;;;;5031566;28;20045;-70
2022/05/15 09:17:29;;;;;;;18.70;5.72;;;21.30;74.70;;;;;;5031556;28;20048;-70
2022/05/15 09:20:07;;;;;;;15.98;4.55;;;21.40;72.00;;;;;;5031602;28;20091;-70
2022/05/15 09:22:37;;;;;;;16.63;5.03;;;21.50;79.60;;;;;;5031817;28;20490;-70
2022/05/15 09:25:26;;;;;;;16.23;4.28;;;21.60;74.30;;;;;;5031353;28;20041;-70
2022/05/15 09:28:05;;;;;;;13.40;4.07;;;21.70;70.30;;;;;;5031073;28;20060;-70
2022/05/15 09:30:42;;;;;;;15.82;4.07;;;21.90;69.60;;;;;;5035149;28;20037;-71
2022/05/15 09:33:27;;;;;;;21.02;4.57;;;22.00;69.70;;;;;;5035514;28;20048;-70
2022/05/15 09:36:30;;;;;;;17.27;4.70;;;22.20;70.70;;;;;;5035093;28;20073;-70
2022/05/15 09:39:24;;;;;;;17.83;4.93;;;22.40;68.70;;;;;;5035134;28;20041;-70
2022/05/15 09:45:25;;;;;;;16.77;4.70;;;22.60;64.00;;;;;;4958949;28;20557;-70
2022/05/15 09:47:51;;;;;;;17.85;4.65;;;22.80;61.10;;;;;;5020890;28;20053;-70
2022/05/15 09:50:41;;;;;;;15.65;4.28;;;22.80;60.20;;;;;;5035210;28;20410;-70
2022/05/15 09:53:36;;;;;;;15.82;4.35;;;23.00;57.50;;;;;;5018437;28;20045;-70
2022/05/15 09:56:05;;;;;;;17.08;4.35;;;23.10;60.30;;;;;;5025927;28;20057;-71
2022/05/15 09:58:37;;;;;;;20.02;4.43;;;23.20;60.60;;;;;;5018205;28;20042;-71
2022/05/15 10:01:15;;;;;;;16.77;3.90;;;23.30;62.00;;;;;;5034794;28;20052;-71
2022/05/15 10:03:41;;;;;;;19.35;4.13;;;23.30;59.50;;;;;;5034649;28;20041;-70
2022/05/15 10:06:09;;;;;;;13.82;4.45;;;23.40;59.50;;;;;;5034881;28;20045;-71
2022/05/15 10:08:36;;;;;;;15.50;4.65;;;23.50;58.90;;;;;;5034595;28;20569;-71
2022/05/15 10:11:06;;;;;;;15.90;4.72;;;23.60;57.10;;;;;;5034528;28;20411;-71
2022/05/15 10:13:37;;;;;;;18.80;4.40;;;23.80;56.90;;;;;;5034521;28;20540;-71
2022/05/15 10:16:25;;;;;;;17.98;4.45;;;23.90;56.10;;;;;;5017971;28;20509;-70
2022/05/15 10:19:33;;;;;;;16.23;4.28;;;24.10;55.20;;;;;;5036242;28;20088;-70
2022/05/15 10:22:34;;;;;;;22.13;4.18;;;24.10;55.70;;;;;;4942640;28;20093;-70
2022/05/15 10:25:14;;;;;;;15.20;4.05;;;24.20;54.20;;;;;;5017560;28;20038;-70
2022/05/15 10:27:46;;;;;;;18.25;4.32;;;24.20;54.40;;;;;;5034233;28;20037;-70
2022/05/15 10:30:19;;;;;;;17.48;4.35;;;24.30;54.00;;;;;;5034148;28;20073;-70
2022/05/15 10:33:06;;;;;;;14.55;4.40;;;24.40;53.70;;;;;;5018422;28;20041;-70
2022/05/15 10:35:48;;;;;;;14.82;4.05;;;24.60;53.30;;;;;;5034255;28;20116;-70
2022/05/15 10:38:28;;;;;;;19.13;5.82;;;24.70;51.00;;;;;;5034513;28;20442;-69
2022/05/15 10:41:05;;;;;;;18.92;3.80;;;24.80;49.60;;;;;;5018213;28;20125;-69
2022/05/15 10:43:58;;;;;;;17.60;4.13;;;24.90;51.40;;;;;;5034018;28;20494;-70
2022/05/15 10:46:40;;;;;;;20.02;4.90;;;25.10;49.70;;;;;;5023833;28;20041;-70
2022/05/15 10:49:18;;;;;;;17.25;4.72;;;25.20;49.80;;;;;;5033863;28;20044;-70
2022/05/15 10:52:12;;;;;;;16.60;4.40;;;25.20;50.40;;;;;;5034548;28;20382;-70
2022/05/15 10:58:20;;;;;;;17.27;4.20;;;25.20;50.20;;;;;;5033626;28;20520;-70
2022/05/15 11:01:05;;;;;;;15.40;4.30;;;25.30;48.80;;;;;;5033654;28;20041;-69
2022/05/15 11:03:50;;;;;;;12.27;3.70;;;25.30;48.90;;;;;;5017567;28;20045;-70
2022/05/15 11:06:21;;;;;;;13.88;4.20;;;25.50;49.00;;;;;;5033343;28;20041;-70
2022/05/15 11:09:18;;;;;;;17.98;4.30;;;25.60;48.60;;;;;;5033594;28;20453;-70
2022/05/15 11:12:22;;;;;;;14.88;4.43;;;25.70;47.40;;;;;;5033865;28;20064;-70
2022/05/15 11:15:21;;;;;;;14.00;4.30;;;25.80;47.00;;;;;;5033448;28;20045;-70
2022/05/15 11:17:58;;;;;;;16.75;3.97;;;26.00;47.40;;;;;;5033529;28;20082;-70
2022/05/15 11:20:31;;;;;;;17.50;3.95;;;26.30;48.30;;;;;;5033285;28;20489;-70
2022/05/15 11:23:22;;;;;;;;;;;26.50;47.30;;;;;;5033649;28;20164;-70
2022/05/15 11:25:55;;;;;;;14.35;4.05;;;26.50;45.50;;;;;;5030911;28;19928;-70
2022/05/15 11:28:27;;;;;;;17.05;4.28;;;26.60;47.60;;;;;;5033156;28;20041;-70
2022/05/15 11:31:04;;;;;;;;;;;26.70;47.00;;;;;;5033551;28;20053;-70
2022/05/15 11:33:52;;;;;;;16.38;4.43;;;26.70;45.00;;;;;;5033014;28;19921;-70
2022/05/15 11:36:29;;;;;;;17.33;3.80;;;26.80;45.70;;;;;;5015888;28;20057;-70
2022/05/15 11:38:55;;;;;;;14.50;3.55;;;26.90;43.80;;;;;;5033039;28;20446;-70
2022/05/15 11:41:36;;;;;;;15.57;4.10;;;26.80;44.70;;;;;;5032941;28;20502;-70
2022/05/15 11:44:09;;;;;;;11.75;3.33;;;26.60;44.10;;;;;;5033023;28;20554;-70
2022/05/15 11:46:50;;;;;;;13.55;3.88;;;26.50;45.00;;;;;;5032852;28;20497;-70
2022/05/15 11:49:37;;;;;;;12.27;3.70;;;26.50;44.40;;;;;;5032691;28;20037;-70
2022/05/15 11:52:03;;;;;;;13.73;3.47;;;26.50;44.80;;;;;;5031376;28;20052;-70
2022/05/15 11:54:33;;;;;;;14.20;3.58;;;26.50;45.00;;;;;;5032815;28;20136;-70
2022/05/15 11:57:00;;;;;;;14.65;3.42;;;26.60;45.40;;;;;;5032475;28;20041;-69
2022/05/15 11:59:32;;;;;;;11.80;3.47;;;26.70;44.90;;;;;;5032427;28;20072;-70
2022/05/15 12:02:03;;;;;;;13.82;3.65;;;26.70;43.50;;;;;;5032812;28;20049;-70
2022/05/15 12:04:35;;;;;;;13.43;4.17;;;26.80;45.20;;;;;;5032516;28;20068;-70
2022/05/15 12:07:01;;;;;;;17.58;4.07;;;26.90;44.70;;;;;;5032644;28;20087;-70
2022/05/15 12:09:39;;;;;;;12.77;3.53;;;27.10;44.40;;;;;;5032817;28;20441;-70
2022/05/15 12:12:20;;;;;;;17.10;3.90;;;27.20;44.30;;;;;;5032608;28;20045;-70
2022/05/15 12:15:12;;;;;;;16.02;4.10;;;27.40;43.30;;;;;;5032414;28;20136;-70
2022/05/15 12:17:59;;;;;;;15.13;3.67;;;27.40;43.00;;;;;;5032486;28;20418;-70
2022/05/15 12:20:30;;;;;;;13.13;3.83;;;27.50;43.20;;;;;;5032455;28;20088;-70
2022/05/15 12:23:03;;;;;;;13.27;3.92;;;27.50;42.80;;;;;;5032161;28;20045;-70
2022/05/15 12:25:35;;;;;;;12.13;3.78;;;27.40;42.00;;;;;;5031884;28;20503;-70
2022/05/15 12:28:52;;;;;;;9.77;3.28;;;27.30;42.40;;;;;;5032483;28;20044;-70
2022/05/15 12:31:24;;;;;;;13.15;3.78;;;27.40;42.60;;;;;;5032039;28;20037;-70
2022/05/15 12:33:50;;;;;;;14.52;3.83;;;27.40;42.00;;;;;;5032059;28;20409;-70
2022/05/15 12:36:26;;;;;;;13.85;3.70;;;27.50;42.90;;;;;;5032450;28;20041;-70
2022/05/15 12:38:54;;;;;;;14.90;4.10;;;27.60;41.50;;;;;;5032405;28;20052;-70
2022/05/15 12:41:26;;;;;;;11.13;3.40;;;27.60;42.10;;;;;;5016115;28;20127;-70
2022/05/15 12:43:53;;;;;;;10.95;3.53;;;27.70;41.50;;;;;;5031923;28;20053;-71
2022/05/15 12:46:53;;;;;;;12.77;3.40;;;27.70;41.60;;;;;;5032066;28;20042;-70
2022/05/15 12:49:36;;;;;;;15.40;3.47;;;27.80;40.80;;;;;;5027665;28;20049;-70
2022/05/15 12:52:17;;;;;;;14.38;3.50;;;27.70;40.70;;;;;;5015231;28;20071;-70
2022/05/15 12:54:46;;;;;;;13.98;3.92;;;27.70;41.70;;;;;;5031381;28;20120;-69
2022/05/15 12:57:15;;;;;;;12.85;3.38;;;27.70;40.50;;;;;;5031443;28;20424;-70
2022/05/15 12:59:46;;;;;;;15.48;3.47;;;27.70;41.40;;;;;;5030242;28;20049;-70
2022/05/15 13:02:15;;;;;;;12.77;3.33;;;27.70;41.10;;;;;;5030873;28;20076;-70
2022/05/15 13:04:46;;;;;;;13.90;3.90;;;27.80;40.20;;;;;;5034161;28;20037;-70
2022/05/15 13:07:12;;;;;;;11.25;3.50;;;28.00;40.30;;;;;;5019487;28;20049;-70
2022/05/15 13:09:39;;;;;;;13.20;3.38;;;28.20;42.50;;;;;;5035657;28;20405;-71
2022/05/15 13:12:07;;;;;;;13.45;3.58;;;28.20;40.00;;;;;;5035824;28;20485;-71
2022/05/15 13:14:45;;;;;;;12.80;3.70;;;28.20;39.20;;;;;;5035754;28;20053;-71
2022/05/15 13:17:12;;;;;;;13.45;3.40;;;28.20;38.60;;;;;;5035564;28;20073;-71